MUCU/SCU METAR and TAF weather

Enter ICAO airport designator
Station Type Date Time Source
MUCU METAR 2021/09/23 17:50 UTC NOAA

MUCU 231750Z 20008KT 170V230 9000 SCT020 30/25 Q1011


Station Type Date Time Source
MUCU Decoded METAR 2021/09/23 17:50 UTC NOAA

Santiago De Cuba, Oriente, Cuba (MUCU) 19-58N 075-51W 55M
Sep 23, 2021 - 01:50 PM EDT / 2021.09.23 1750 UTC
Wind: from the SSW (200 degrees) at 9 MPH (8 KT) (direction variable):0
Visibility: 5 mile(s):0
Sky conditions: partly cloudy
Temperature: 86 F (30 C)
Heat index: 96.8 F (36.0 C):1
Dew Point: 77 F (25 C)
Relative Humidity: 74%
Pressure (altimeter): 29.85 in. Hg (1011 hPa)
ob: MUCU 231750Z 20008KT 170V230 9000 SCT020 30/25 Q1011
cycle: 18

Station Type Date Time Source
MUCU TAF 2021/09/23 18:27 UTC NOAA

TAF TAF MUCU 231700Z 2318/2418 20009KT 9000 SCT020
TEMPO 2318/2324 SCT018CB BKN020
BECMG 2400/2403 VRB03KT

Example: see airport list